Time;durP1;ratioP1;P1;durP2;ratioP2;P2;SDS_P1;SDS_P2;PMS_P1;PMS_P2;Temp;Humidity;BMP_temperature;BMP_pressure;BME280_temperature;BME280_humidity;BME280_pressure;Samples;Min_cycle;Max_cycle;Signal;HPM_P1;HPM_P2
2021/04/27 00:02:02;;;;;;;3.60;3.30;;;11.60;35.60;;;;;;4754292;30;20051;-90
2021/04/27 00:04:28;;;;;;;6.25;3.60;;;11.60;35.70;;;;;;4739961;30;20035;-90
2021/04/27 00:06:55;;;;;;;6.35;3.63;;;11.70;35.90;;;;;;4740109;30;20059;-90
2021/04/27 00:09:21;;;;;;;4.53;3.42;;;11.70;35.90;;;;;;4739765;30;20066;-89
2021/04/27 00:11:47;;;;;;;7.40;3.72;;;11.70;35.70;;;;;;4727202;30;20089;-90
2021/04/27 00:14:14;;;;;;;5.93;4.00;;;11.70;35.60;;;;;;4726363;30;20043;-90
2021/04/27 00:16:40;;;;;;;4.97;3.88;;;11.70;35.50;;;;;;4738374;30;20050;-89
2021/04/27 00:19:08;;;;;;;6.75;3.67;;;11.70;35.50;;;;;;4722046;30;20676;-90
2021/04/27 00:21:34;;;;;;;5.30;3.40;;;11.60;35.70;;;;;;4749797;30;20035;-90
2021/04/27 00:24:00;;;;;;;6.45;3.38;;;11.60;36.00;;;;;;4717983;30;20177;-89
2021/04/27 00:26:27;;;;;;;8.82;3.55;;;11.50;36.10;;;;;;4730998;30;20059;-91
2021/04/27 00:28:53;;;;;;;6.22;3.70;;;11.50;36.30;;;;;;4717298;30;20035;-90
2021/04/27 00:31:20;;;;;;;6.93;3.58;;;11.40;36.30;;;;;;4717392;30;20043;-90
2021/04/27 00:33:46;;;;;;;3.58;3.28;;;11.50;36.40;;;;;;4702482;30;20065;-91
2021/04/27 00:36:12;;;;;;;7.63;4.00;;;11.50;36.10;;;;;;4716586;30;20548;-90
2021/04/27 00:38:38;;;;;;;8.15;3.70;;;11.50;35.90;;;;;;4715983;30;20035;-90
2021/04/27 00:41:05;;;;;;;5.78;4.03;;;11.60;35.70;;;;;;4717613;30;20043;-89
2021/04/27 00:43:31;;;;;;;7.75;4.07;;;11.50;35.60;;;;;;4732603;30;20130;-91
2021/04/27 00:45:58;;;;;;;10.82;4.38;;;11.50;35.60;;;;;;4718365;30;20535;-89
2021/04/27 00:48:24;;;;;;;7.28;4.10;;;11.40;35.60;;;;;;4722414;30;20047;-89
2021/04/27 00:50:51;;;;;;;6.13;3.40;;;11.40;35.80;;;;;;4727714;30;20035;-89
2021/04/27 00:53:17;;;;;;;5.53;4.13;;;11.40;36.00;;;;;;4725473;30;20043;-88
2021/04/27 00:55:44;;;;;;;7.80;4.32;;;11.40;36.30;;;;;;4720532;30;20110;-90
2021/04/27 00:58:10;;;;;;;11.88;4.10;;;11.40;36.50;;;;;;4717207;30;20069;-90
2021/04/27 01:00:38;;;;;;;11.10;4.50;;;11.40;36.60;;;;;;4732773;30;20412;-90
2021/04/27 01:03:05;;;;;;;6.20;4.32;;;11.40;36.60;;;;;;4716723;30;20054;-91
2021/04/27 01:05:32;;;;;;;;;;;11.40;36.80;;;;;;4717390;30;20066;-90
2021/04/27 01:08:16;;;;;;;13.57;5.53;;;11.40;36.80;;;;;;4736252;30;19937;-91
2021/04/27 01:11:11;;;;;;;7.85;4.63;;;11.40;36.40;;;;;;4735634;30;20054;-91
2021/04/27 01:14:09;;;;;;;11.57;5.00;;;11.50;36.50;;;;;;4735042;30;20538;-91
2021/04/27 01:16:48;;;;;;;12.98;5.45;;;11.50;36.50;;;;;;4734224;30;20157;-91
2021/04/27 01:19:23;;;;;;;11.80;4.75;;;11.50;36.40;;;;;;4735126;30;20051;-89
2021/04/27 01:21:50;;;;;;;12.68;5.13;;;11.50;36.20;;;;;;4735870;30;20039;-91
2021/04/27 01:24:45;;;;;;;18.65;6.05;;;11.50;36.30;;;;;;4740048;30;20080;-91
2021/04/27 01:27:11;;;;;;;15.88;5.82;;;11.50;36.60;;;;;;4724413;30;20420;-91
2021/04/27 01:29:38;;;;;;;29.35;7.85;;;11.50;36.40;;;;;;4718119;30;20066;-89
2021/04/27 01:32:05;;;;;;;29.35;6.53;;;11.60;36.40;;;;;;4732627;30;20035;-89
2021/04/27 01:34:44;;;;;;;15.32;6.45;;;11.50;36.40;;;;;;4705199;30;20054;-88
2021/04/27 01:37:10;;;;;;;19.00;6.75;;;11.50;36.40;;;;;;4732831;30;20102;-88
2021/04/27 01:39:37;;;;;;;18.60;6.55;;;11.50;36.30;;;;;;4717795;30;20047;-91
2021/04/27 01:42:05;;;;;;;13.18;5.85;;;11.50;36.40;;;;;;4719860;30;20216;-93
2021/04/27 01:44:34;;;;;;;15.82;5.97;;;11.40;36.40;;;;;;4738271;30;20054;-89
2021/04/27 01:47:00;;;;;;;19.00;6.45;;;11.40;36.50;;;;;;4718674;30;20039;-88
2021/04/27 01:49:27;;;;;;;27.15;6.65;;;11.40;36.60;;;;;;4722983;30;20114;-86
2021/04/27 01:51:54;;;;;;;23.65;7.82;;;11.40;36.60;;;;;;4741657;30;20043;-87
2021/04/27 01:54:29;;;;;;;20.20;6.97;;;11.40;36.60;;;;;;4728363;30;20069;-91
2021/04/27 01:56:56;;;;;;;13.70;7.03;;;11.50;36.60;;;;;;4734112;30;20047;-92
2021/04/27 01:59:23;;;;;;;15.23;6.72;;;11.50;36.40;;;;;;4734422;30;20059;-91
2021/04/27 02:01:50;;;;;;;17.17;6.50;;;11.60;36.40;;;;;;4731966;30;20058;-92
2021/04/27 02:04:24;;;;;;;19.60;7.57;;;11.60;36.40;;;;;;4733777;30;20085;-92
2021/04/27 02:06:51;;;;;;;17.00;7.60;;;11.60;36.60;;;;;;4733885;30;20047;-91
2021/04/27 02:09:18;;;;;;;17.23;7.43;;;11.60;36.60;;;;;;4731111;30;20050;-93
2021/04/27 02:11:45;;;;;;;30.85;14.32;;;11.70;36.90;;;;;;4729673;30;20443;-92
2021/04/27 02:14:13;;;;;;;21.58;9.10;;;11.70;37.10;;;;;;4732842;30;20027;-94
2021/04/27 02:17:14;;;;;;;22.13;8.38;;;11.70;37.00;;;;;;4744910;30;20039;-94
2021/04/27 02:19:41;;;;;;;23.38;8.45;;;11.70;36.70;;;;;;4729933;30;20552;-92
2021/04/27 02:22:08;;;;;;;26.30;8.40;;;11.80;36.80;;;;;;4727173;30;20043;-92
2021/04/27 02:24:37;;;;;;;15.68;7.68;;;11.90;37.00;;;;;;4722273;30;20049;-94
2021/04/27 02:27:05;;;;;;;17.63;8.05;;;11.90;37.10;;;;;;4726779;30;20055;-94
2021/04/27 02:29:33;;;;;;;20.95;7.93;;;11.90;37.00;;;;;;4735387;30;20039;-93
2021/04/27 02:32:00;;;;;;;18.67;7.70;;;12.10;37.10;;;;;;4729843;30;20063;-93
2021/04/27 02:34:27;;;;;;;;;;;12.10;37.00;;;;;;4733158;30;20047;-95
2021/04/27 02:36:54;;;;;;;;;;;12.20;37.00;;;;;;4750242;30;19971;-92
2021/04/27 02:39:21;;;;;;;9.80;5.57;;;12.30;36.40;;;;;;4740577;30;19967;-94
2021/04/27 02:41:53;;;;;;;12.75;5.53;;;12.40;36.00;;;;;;4738957;30;20035;-93
2021/04/27 02:44:21;;;;;;;9.77;4.78;;;12.40;35.50;;;;;;4723436;30;20054;-93
2021/04/27 02:46:49;;;;;;;8.27;4.13;;;12.50;34.70;;;;;;4737696;30;20043;-92
2021/04/27 02:49:17;;;;;;;4.10;3.00;;;12.50;34.40;;;;;;4734281;30;20043;-90
2021/04/27 02:51:44;;;;;;;3.80;2.97;;;12.50;33.60;;;;;;4747092;30;20042;-89
2021/04/27 02:54:10;;;;;;;6.90;3.97;;;12.50;32.60;;;;;;4718791;30;20535;-88
2021/04/27 02:56:37;;;;;;;7.13;3.85;;;12.40;32.70;;;;;;4718924;30;20065;-88
2021/04/27 02:59:04;;;;;;;5.97;3.40;;;12.40;32.60;;;;;;4724460;30;20138;-87
2021/04/27 03:01:31;;;;;;;;;;;12.50;32.50;;;;;;4727229;30;20200;-91
2021/04/27 03:03:59;;;;;;;5.30;3.60;;;12.50;32.40;;;;;;4721111;30;20340;-90
2021/04/27 03:06:25;;;;;;;40.92;6.57;;;12.70;32.50;;;;;;4735189;30;20039;-90
2021/04/27 03:08:52;;;;;;;8.93;4.38;;;12.80;32.40;;;;;;4732719;30;20125;-89
2021/04/27 03:11:18;;;;;;;9.63;4.07;;;13.00;32.30;;;;;;4717491;30;20042;-90
2021/04/27 03:13:44;;;;;;;8.75;4.13;;;13.10;32.30;;;;;;4731968;30;20138;-89
2021/04/27 03:16:11;;;;;;;10.60;3.97;;;13.20;32.10;;;;;;4719242;30;20104;-91
2021/04/27 03:18:37;;;;;;;;;;;13.40;32.10;;;;;;4723186;30;20043;-90
2021/04/27 03:21:04;;;;;;;6.85;3.97;;;13.50;32.30;;;;;;4733331;30;19929;-89
2021/04/27 03:23:31;;;;;;;;;;;13.60;31.80;;;;;;4705046;30;20039;-90
2021/04/27 03:25:57;;;;;;;17.55;4.63;;;13.60;31.50;;;;;;4732737;30;19933;-90
2021/04/27 03:28:24;;;;;;;11.82;4.47;;;13.70;31.40;;;;;;4735224;30;20046;-89
2021/04/27 03:30:56;;;;;;;10.65;4.00;;;13.70;31.40;;;;;;4735703;30;20038;-90
2021/04/27 03:33:24;;;;;;;21.92;4.78;;;13.80;31.50;;;;;;4742228;30;20165;-89
2021/04/27 03:35:51;;;;;;;17.05;4.97;;;13.90;31.50;;;;;;4712820;30;20039;-89
2021/04/27 03:38:17;;;;;;;22.40;5.13;;;14.00;31.30;;;;;;4728948;30;20047;-90
2021/04/27 03:40:44;;;;;;;18.35;4.72;;;14.00;31.30;;;;;;4740424;30;20039;-89
2021/04/27 03:43:10;;;;;;;18.75;5.38;;;14.10;31.00;;;;;;4710379;30;20133;-90
2021/04/27 03:45:36;;;;;;;21.25;5.20;;;14.10;30.90;;;;;;4723641;30;20050;-89
2021/04/27 03:48:10;;;;;;;13.57;4.82;;;14.20;30.90;;;;;;4741837;30;20073;-89
2021/04/27 03:50:36;;;;;;;20.33;5.07;;;14.30;30.80;;;;;;4732032;30;20047;-89
2021/04/27 03:53:03;;;;;;;24.42;6.05;;;14.30;30.50;;;;;;4730485;30;20047;-92
2021/04/27 03:55:33;;;;;;;21.60;6.95;;;14.40;30.40;;;;;;4742522;30;20051;-89
2021/04/27 03:58:00;;;;;;;25.17;5.97;;;14.40;30.10;;;;;;4726827;30;20050;-90
2021/04/27 04:00:26;;;;;;;10.93;4.30;;;14.40;30.10;;;;;;4724382;30;20050;-90
2021/04/27 04:02:53;;;;;;;;;;;14.40;30.40;;;;;;4750649;30;20042;-90
2021/04/27 04:05:19;;;;;;;14.20;5.00;;;14.40;30.50;;;;;;4735147;30;20025;-88
2021/04/27 04:07:46;;;;;;;27.65;6.25;;;14.30;30.30;;;;;;4719080;30;20043;-88
2021/04/27 04:10:13;;;;;;;19.55;5.93;;;14.30;30.30;;;;;;4719315;30;20053;-91
2021/04/27 04:12:42;;;;;;;33.70;6.63;;;14.30;30.60;;;;;;4719021;30;20110;-90
2021/04/27 04:15:14;;;;;;;20.05;5.00;;;14.40;30.90;;;;;;4734977;30;20051;-90
2021/04/27 04:17:41;;;;;;;25.13;5.90;;;14.40;30.80;;;;;;4733567;30;20523;-91
2021/04/27 04:20:11;;;;;;;18.75;5.32;;;14.40;30.70;;;;;;4733618;30;20120;-89
2021/04/27 04:22:38;;;;;;;38.78;6.05;;;14.40;30.90;;;;;;4718655;30;20552;-90
2021/04/27 04:25:07;;;;;;;11.95;4.57;;;14.40;31.00;;;;;;4717464;30;20051;-88
2021/04/27 04:27:33;;;;;;;25.80;5.90;;;14.50;31.10;;;;;;4731556;30;20110;-87
2021/04/27 04:30:01;;;;;;;7.63;3.65;;;14.50;30.90;;;;;;4716129;30;20535;-90
2021/04/27 04:32:27;;;;;;;7.72;3.65;;;14.60;31.00;;;;;;4716817;30;20126;-91
2021/04/27 04:34:54;;;;;;;6.28;3.60;;;14.50;31.00;;;;;;4717870;30;20051;-87
2021/04/27 04:37:20;;;;;;;5.18;3.45;;;14.60;31.00;;;;;;4718680;30;20034;-89
2021/04/27 04:39:46;;;;;;;6.43;3.28;;;14.50;30.90;;;;;;4701595;30;20046;-89
2021/04/27 04:42:13;;;;;;;17.17;4.38;;;14.50;31.00;;;;;;4732670;30;20360;-87
2021/04/27 04:44:39;;;;;;;3.97;3.33;;;14.60;31.00;;;;;;4717962;30;20061;-92
2021/04/27 04:47:06;;;;;;;4.35;3.33;;;14.80;31.00;;;;;;4732834;30;20030;-91
2021/04/27 04:49:32;;;;;;;5.40;3.30;;;14.90;30.60;;;;;;4703691;30;20049;-90
2021/04/27 04:51:58;;;;;;;3.28;2.95;;;15.00;30.30;;;;;;4737985;30;20053;-89
2021/04/27 04:54:25;;;;;;;4.85;3.50;;;15.00;29.90;;;;;;4737102;30;20039;-89
2021/04/27 04:56:51;;;;;;;5.80;3.42;;;15.10;29.80;;;;;;4715797;30;20146;-85
2021/04/27 04:59:17;;;;;;;7.88;3.90;;;15.10;29.80;;;;;;4719777;30;20047;-92
2021/04/27 05:01:44;;;;;;;5.90;3.13;;;15.10;29.80;;;;;;4720316;30;20092;-90
2021/04/27 05:04:10;;;;;;;5.75;3.65;;;15.10;29.60;;;;;;4732344;30;20063;-90
2021/04/27 05:06:40;;;;;;;12.90;3.90;;;15.10;29.70;;;;;;4731290;30;20039;-89
2021/04/27 05:09:13;;;;;;;4.60;3.20;;;15.10;30.00;;;;;;4734821;30;20594;-91
2021/04/27 05:11:42;;;;;;;3.90;2.88;;;15.20;30.10;;;;;;4751625;30;20473;-93
2021/04/27 05:14:13;;;;;;;3.92;2.88;;;15.20;30.00;;;;;;4746516;30;20059;-92
2021/04/27 05:16:43;;;;;;;5.85;2.60;;;15.30;29.90;;;;;;4731195;30;20039;-91
2021/04/27 05:19:19;;;;;;;1.92;1.65;;;15.40;29.80;;;;;;4735252;30;21902;-95
2021/04/27 05:21:50;;;;;;;8.73;2.90;;;15.40;29.70;;;;;;4825829;24;20049;-95
2021/04/27 05:24:33;;;;;;;7.95;2.72;;;15.30;30.00;;;;;;4810710;29;20084;-94
2021/04/27 05:27:05;;;;;;;5.13;2.90;;;15.20;30.40;;;;;;4840677;29;20052;-94
2021/04/27 05:29:37;;;;;;;5.28;3.10;;;15.00;30.80;;;;;;4831869;29;20045;-92
2021/04/27 05:32:05;;;;;;;7.43;3.35;;;15.10;31.10;;;;;;4835321;29;20104;-92
2021/04/27 05:34:36;;;;;;;7.30;2.60;;;15.30;31.00;;;;;;4817130;29;20041;-88
2021/04/27 05:37:06;;;;;;;3.15;2.60;;;15.50;30.50;;;;;;4835497;29;20045;-94
2021/04/27 05:39:39;;;;;;;3.33;2.30;;;15.70;30.10;;;;;;4842732;29;20049;-91
2021/04/27 05:42:07;;;;;;;7.30;3.35;;;15.80;29.40;;;;;;4819282;29;20556;-92
2021/04/27 05:44:37;;;;;;;6.15;2.80;;;15.90;29.60;;;;;;4820316;29;20045;-92
2021/04/27 05:47:06;;;;;;;6.85;2.83;;;16.00;29.60;;;;;;4819955;29;20098;-92
2021/04/27 05:49:38;;;;;;;3.80;2.50;;;16.10;29.50;;;;;;4835521;29;20053;-92
2021/04/27 05:52:06;;;;;;;6.82;2.80;;;16.30;29.40;;;;;;4843318;29;20128;-92
2021/04/27 05:54:38;;;;;;;4.35;2.60;;;16.50;29.40;;;;;;4809572;29;20037;-92
2021/04/27 05:57:06;;;;;;;4.03;2.40;;;16.60;29.40;;;;;;4820982;29;20116;-91
2021/04/27 05:59:35;;;;;;;4.43;2.22;;;16.70;29.10;;;;;;4828207;29;20437;-93
2021/04/27 06:02:02;;;;;;;4.38;2.33;;;16.70;29.00;;;;;;4834244;29;20771;-93
2021/04/27 06:04:28;;;;;;;2.20;2.03;;;16.70;29.20;;;;;;4806336;29;20056;-91
2021/04/27 06:06:57;;;;;;;3.50;2.72;;;16.60;29.40;;;;;;4825948;29;20037;-90
2021/04/27 06:09:23;;;;;;;4.32;2.90;;;16.40;30.80;;;;;;4842171;29;20044;-91
2021/04/27 06:11:49;;;;;;;6.35;2.60;;;16.20;30.30;;;;;;4825860;29;20041;-93
2021/04/27 06:14:19;;;;;;;3.88;2.70;;;16.00;32.30;;;;;;4840755;29;20046;-91
2021/04/27 06:16:45;;;;;;;13.10;3.60;;;16.00;31.40;;;;;;4791297;29;20525;-88
2021/04/27 06:19:11;;;;;;;4.68;2.78;;;16.00;31.70;;;;;;4834967;29;20037;-88
2021/04/27 06:21:37;;;;;;;1.92;1.55;;;15.90;32.20;;;;;;4787386;29;20076;-90
2021/04/27 06:24:04;;;;;;;2.05;1.67;;;15.70;33.20;;;;;;4828597;29;20082;-88
2021/04/27 06:26:33;;;;;;;2.90;1.58;;;15.40;34.10;;;;;;4812315;29;20041;-89
2021/04/27 06:28:59;;;;;;;3.58;2.10;;;15.20;35.00;;;;;;4804257;29;20109;-89
2021/04/27 06:31:25;;;;;;;1.92;1.75;;;15.10;35.70;;;;;;4787059;29;20180;-91
2021/04/27 06:33:52;;;;;;;5.03;2.50;;;15.00;36.10;;;;;;4834213;29;20057;-88
2021/04/27 06:36:18;;;;;;;2.65;2.42;;;14.90;36.70;;;;;;4806018;29;20037;-89
2021/04/27 06:38:44;;;;;;;2.15;1.95;;;14.90;37.10;;;;;;4827306;29;20048;-89
2021/04/27 06:41:11;;;;;;;1.73;1.63;;;15.00;37.20;;;;;;4808211;29;20415;-89
2021/04/27 06:46:16;;;;;;;1.85;1.75;;;15.10;37.70;;;;;;4842970;24;20068;-94
2021/04/27 06:48:54;;;;;;;;;;;;;;;;;;;;;
2021/04/27 06:51:22;;;;;;;1.77;1.67;;;15.10;38.40;;;;;;4797077;29;20097;-94
2021/04/27 06:53:49;;;;;;;2.80;2.45;;;15.00;38.30;;;;;;4789032;29;20057;-91
2021/04/27 06:56:15;;;;;;;2.92;2.30;;;15.00;38.40;;;;;;4802587;29;20042;-91
2021/04/27 06:58:41;;;;;;;4.55;2.97;;;15.10;38.40;;;;;;4804843;29;20038;-92
2021/04/27 07:01:08;;;;;;;3.88;2.45;;;15.20;38.20;;;;;;4814190;29;20038;-96
2021/04/27 07:03:36;;;;;;;4.03;2.40;;;15.30;37.80;;;;;;4836486;24;20055;-92
2021/04/27 07:06:03;;;;;;;3.45;2.35;;;15.20;37.90;;;;;;4755993;30;20046;-87
2021/04/27 07:08:30;;;;;;;1.35;1.20;;;15.10;37.90;;;;;;4765865;30;20053;-94
2021/04/27 07:10:57;;;;;;;2.47;1.88;;;15.00;38.20;;;;;;4777936;30;20062;-95
2021/04/27 07:13:26;;;;;;;1.40;1.30;;;14.70;38.70;;;;;;4742969;30;20117;-96
2021/04/27 07:15:58;;;;;;;1.70;1.60;;;14.50;39.30;;;;;;4759705;30;20047;-94
2021/04/27 07:18:33;;;;;;;2.70;2.20;;;14.50;39.60;;;;;;4749834;30;20057;-91
2021/04/27 07:21:00;;;;;;;2.30;1.83;;;14.40;40.00;;;;;;4776395;30;20047;-91
2021/04/27 07:23:27;;;;;;;1.45;1.10;;;14.50;40.40;;;;;;4723225;30;20043;-91
2021/04/27 07:25:55;;;;;;;2.55;0.93;;;14.60;40.30;;;;;;4747648;30;20054;-93
2021/04/27 07:28:21;;;;;;;2.85;1.55;;;14.70;39.80;;;;;;4722559;30;20055;-93
2021/04/27 07:30:48;;;;;;;1.90;1.80;;;14.80;39.80;;;;;;4737206;30;20064;-95
2021/04/27 07:33:15;;;;;;;2.72;2.20;;;14.90;39.80;;;;;;4743749;30;20123;-95
2021/04/27 07:35:44;;;;;;;2.10;1.90;;;14.90;39.90;;;;;;4738292;30;20039;-95
2021/04/27 07:38:10;;;;;;;1.30;1.10;;;15.00;39.60;;;;;;4739639;30;20043;-96
2021/04/27 07:40:37;;;;;;;3.55;2.90;;;15.00;39.50;;;;;;4752866;30;20042;-95
2021/04/27 07:43:03;;;;;;;1.20;1.15;;;14.90;39.60;;;;;;4773552;30;20050;-94
2021/04/27 07:45:33;;;;;;;10.18;3.55;;;14.80;39.80;;;;;;4743399;30;20050;-92
2021/04/27 07:48:06;;;;;;;1.85;1.75;;;14.80;40.00;;;;;;4741476;30;20039;-91
2021/04/27 07:50:35;;;;;;;2.80;1.85;;;14.80;40.20;;;;;;4726568;30;20046;-94
2021/04/27 07:53:02;;;;;;;3.85;2.47;;;14.90;40.50;;;;;;4893428;24;20045;-89
2021/04/27 07:55:28;;;;;;;2.53;2.33;;;14.90;40.50;;;;;;4822623;29;20136;-90
2021/04/27 07:57:54;;;;;;;3.45;2.20;;;14.90;40.60;;;;;;4788216;29;20533;-91
2021/04/27 08:00:22;;;;;;;0.88;0.88;;;14.90;40.60;;;;;;4818707;29;20045;-91
2021/04/27 08:02:49;;;;;;;4.80;2.25;;;15.00;40.60;;;;;;4818680;29;20048;-89
2021/04/27 08:07:54;;;;;;;3.97;2.10;;;15.20;40.70;;;;;;4837281;24;20038;-91
2021/04/27 08:10:20;;;;;;;4.32;2.45;;;15.20;40.30;;;;;;4807364;29;20569;-93
2021/04/27 08:12:50;;;;;;;3.58;2.67;;;15.30;40.30;;;;;;4792372;29;20120;-94
2021/04/27 08:15:22;;;;;;;3.03;2.28;;;15.30;40.50;;;;;;4803983;29;20082;-89
2021/04/27 08:17:48;;;;;;;3.33;2.92;;;15.30;40.90;;;;;;4792631;29;20508;-93
2021/04/27 08:20:18;;;;;;;2.38;2.17;;;15.30;41.40;;;;;;4791956;29;20104;-94
2021/04/27 08:22:48;;;;;;;3.40;2.95;;;15.30;41.80;;;;;;4781923;29;20049;-91
2021/04/27 08:25:32;;;;;;;2.90;2.58;;;15.20;41.90;;;;;;4810152;29;20041;-92
2021/04/27 08:28:02;;;;;;;6.22;3.67;;;15.10;42.10;;;;;;4805801;29;20033;-93
2021/04/27 08:37:45;;;;;;;;;;;;;;;;;;;;;
2021/04/27 08:40:16;;;;;;;4.47;4.07;;;15.40;42.20;;;;;;5240983;24;20047;-90
2021/04/27 08:54:45;;;;;;;4.75;4.30;;;15.40;42.20;;;;;;5805969;24;21668;31
2021/04/27 09:04:29;;;;;;;4.40;3.97;;;15.10;42.90;;;;;;5058710;24;20088;31
2021/04/27 09:13:12;;;;;;;4.72;4.30;;;14.60;43.90;;;;;;4766283;30;20131;-89
2021/04/27 09:15:51;;;;;;;8.32;4.65;;;14.60;44.00;;;;;;4802991;24;20046;-94
2021/04/27 09:18:34;;;;;;;7.88;4.85;;;14.60;44.30;;;;;;4791781;29;20050;-88
2021/04/27 09:21:07;;;;;;;5.53;4.85;;;14.70;44.30;;;;;;4783823;29;20057;-94
2021/04/27 09:23:46;;;;;;;5.22;4.72;;;14.80;44.50;;;;;;4746027;30;20043;-93
2021/04/27 09:26:20;;;;;;;6.57;5.07;;;14.80;44.40;;;;;;4748848;30;20050;-92
2021/04/27 09:28:51;;;;;;;5.22;4.72;;;14.70;44.50;;;;;;4754975;29;20037;-89
2021/04/27 09:31:33;;;;;;;19.48;5.63;;;14.60;44.50;;;;;;4757668;30;20049;-90
2021/04/27 09:34:36;;;;;;;5.05;4.55;;;14.50;45.00;;;;;;4891268;24;20079;-94
2021/04/27 09:39:50;;;;;;;11.05;5.00;;;14.20;45.50;;;;;;4796578;29;20058;-93
2021/04/27 09:42:30;;;;;;;4.88;3.83;;;14.10;45.90;;;;;;4754676;30;20063;-93
2021/04/27 09:44:57;;;;;;;8.52;4.95;;;14.00;46.20;;;;;;4743745;30;20031;-93
2021/04/27 09:47:48;;;;;;;4.13;3.70;;;13.90;46.30;;;;;;4740400;30;20027;-92
2021/04/27 09:50:17;;;;;;;8.32;4.72;;;13.80;46.40;;;;;;4726115;30;20042;-91
2021/04/27 09:52:46;;;;;;;11.23;4.88;;;13.80;46.40;;;;;;4757485;30;20042;-93
2021/04/27 09:55:17;;;;;;;8.43;4.47;;;13.80;46.50;;;;;;4736652;30;20068;-94
2021/04/27 09:57:49;;;;;;;6.65;4.18;;;13.90;46.40;;;;;;4746036;30;20054;-94
2021/04/27 10:00:38;;;;;;;4.28;3.95;;;13.90;46.50;;;;;;4752394;30;20062;-93
2021/04/27 10:03:12;;;;;;;4.65;4.22;;;13.80;46.50;;;;;;4736558;30;20068;-90
2021/04/27 10:05:47;;;;;;;3.50;3.00;;;13.80;46.50;;;;;;4736326;30;20030;-89
2021/04/27 10:08:14;;;;;;;3.05;2.85;;;13.80;46.60;;;;;;4750925;30;20027;-92
2021/04/27 10:10:41;;;;;;;3.92;3.63;;;13.60;46.80;;;;;;4746216;30;20045;-92
2021/04/27 10:13:09;;;;;;;3.40;3.10;;;13.50;47.10;;;;;;4740977;29;20031;-91
2021/04/27 10:15:40;;;;;;;2.83;2.63;;;13.40;47.50;;;;;;4747463;30;20042;-91
2021/04/27 10:18:09;;;;;;;8.43;4.13;;;13.30;47.60;;;;;;4739071;30;20542;-89
2021/04/27 10:20:40;;;;;;;4.95;3.60;;;13.20;47.80;;;;;;4745303;30;20050;-93
2021/04/27 10:23:10;;;;;;;4.80;3.88;;;13.10;47.80;;;;;;4732337;30;20034;-95
2021/04/27 10:25:36;;;;;;;3.20;3.00;;;13.10;47.70;;;;;;4757176;30;20038;-90
2021/04/27 10:28:06;;;;;;;5.22;3.40;;;13.10;47.70;;;;;;4742085;30;20035;-94
2021/04/27 10:30:46;;;;;;;2.40;2.25;;;13.10;47.70;;;;;;4743732;30;20042;-89
2021/04/27 10:33:25;;;;;;;3.20;3.00;;;13.10;47.60;;;;;;4744289;30;20039;-92
2021/04/27 10:36:09;;;;;;;4.53;3.30;;;13.10;47.40;;;;;;4748162;30;20050;-92
2021/04/27 10:38:58;;;;;;;5.00;2.95;;;13.10;47.40;;;;;;4727467;30;20043;-90
2021/04/27 10:41:56;;;;;;;3.80;3.08;;;13.10;47.50;;;;;;4742505;30;20071;-94
2021/04/27 10:44:25;;;;;;;3.28;2.97;;;13.00;47.50;;;;;;4772976;30;20110;-96
2021/04/27 10:49:42;;;;;;;3.10;2.90;;;13.00;47.90;;;;;;4974751;24;20121;-94
2021/04/27 10:52:42;;;;;;;2.05;1.77;;;13.00;48.00;;;;;;4792540;29;20049;-94
2021/04/27 10:55:34;;;;;;;4.75;3.35;;;13.00;48.00;;;;;;4829796;29;20086;-93
2021/04/27 10:58:06;;;;;;;6.68;3.30;;;13.00;48.10;;;;;;4807105;29;20052;-90
2021/04/27 11:04:04;;;;;;;3.65;3.38;;;13.30;48.20;;;;;;4891280;24;20048;-95
2021/04/27 11:28:20;;;;;;;2.88;2.67;;;14.50;44.70;;;;;;4552129;24;20052;-95
2021/04/27 11:30:51;;;;;;;2.78;2.58;;;14.50;46.10;;;;;;4797758;29;20090;-93
2021/04/27 11:33:23;;;;;;;6.20;3.90;;;14.60;44.50;;;;;;4810617;29;20050;-92
2021/04/27 11:35:55;;;;;;;4.20;3.38;;;14.50;44.20;;;;;;4795784;29;20065;-91
2021/04/27 11:42:13;;;;;;;2.55;2.35;;;14.30;44.80;;;;;;4793303;29;20084;-93
2021/04/27 11:50:33;;;;;;;1.90;1.80;;;13.80;45.70;;;;;;4869420;24;20090;-93
2021/04/27 11:55:44;;;;;;;6.18;3.97;;;13.70;45.70;;;;;;5316802;24;20046;-94
2021/04/27 11:58:35;;;;;;;5.95;3.47;;;13.80;45.80;;;;;;4915017;24;20058;-94
2021/04/27 12:01:24;;;;;;;2.30;2.03;;;13.90;45.50;;;;;;4768774;29;20057;-94
2021/04/27 12:03:56;;;;;;;3.90;3.17;;;13.90;45.10;;;;;;4840128;24;20060;-94
2021/04/27 12:06:22;;;;;;;3.67;3.10;;;14.00;45.00;;;;;;4816253;29;20053;-95
2021/04/27 12:09:02;;;;;;;3.20;2.90;;;14.00;45.00;;;;;;4885687;24;20326;-96
2021/04/27 12:15:03;;;;;;;5.47;3.75;;;13.90;45.00;;;;;;4888523;24;20526;-94
2021/04/27 12:17:33;;;;;;;7.15;3.72;;;13.90;45.10;;;;;;4790307;29;20093;-95
2021/04/27 12:20:18;;;;;;;7.60;4.15;;;13.90;45.30;;;;;;4805803;29;20065;-96
2021/04/27 12:23:07;;;;;;;5.50;3.53;;;13.90;45.40;;;;;;4840550;24;20373;-95
2021/04/27 12:25:35;;;;;;;3.65;3.35;;;14.00;45.40;;;;;;4935189;24;20530;-96
2021/04/27 12:28:06;;;;;;;4.03;3.72;;;14.10;45.30;;;;;;4791878;29;20042;-95
2021/04/27 12:30:43;;;;;;;5.03;4.10;;;14.20;45.10;;;;;;4775207;30;20038;-96
2021/04/27 12:33:12;;;;;;;;;;;14.40;44.80;;;;;;4765260;29;20106;-95
2021/04/27 12:38:18;;;;;;;8.90;3.80;;;14.70;43.80;;;;;;5176343;24;21136;-96
2021/04/27 12:43:37;;;;;;;4.10;3.40;;;14.60;43.20;;;;;;4972969;24;20424;-94
2021/04/27 12:46:32;;;;;;;2.63;2.42;;;14.60;43.50;;;;;;5028485;24;20128;-94
2021/04/27 12:55:42;;;;;;;2.22;1.85;;;14.20;43.70;;;;;;4837069;24;20481;-92
2021/04/27 12:58:46;;;;;;;4.82;2.17;;;14.10;43.90;;;;;;4799526;29;20049;-94
2021/04/27 13:01:23;;;;;;;3.72;3.42;;;14.00;44.20;;;;;;4817857;29;20155;-95
2021/04/27 13:03:58;;;;;;;4.07;3.67;;;14.00;44.30;;;;;;4796785;29;20495;-95
2021/04/27 13:06:35;;;;;;;;;;;14.10;44.30;;;;;;4800940;29;20049;-95
2021/04/27 13:09:29;;;;;;;3.33;2.95;;;14.10;43.90;;;;;;4787174;29;19956;-93
2021/04/27 13:12:05;;;;;;;4.07;2.15;;;14.10;43.60;;;;;;4822701;29;20049;-96
2021/04/27 13:23:08;;;;;;;2.65;2.28;;;13.90;44.20;;;;;;4973485;24;20112;-92
2021/04/27 13:28:44;;;;;;;3.60;3.17;;;13.80;44.50;;;;;;4777222;29;20054;-96
2021/04/27 13:34:22;;;;;;;4.78;2.90;;;13.70;44.80;;;;;;4806409;29;20058;-94
2021/04/27 13:36:49;;;;;;;3.83;2.35;;;13.70;44.90;;;;;;5021702;24;20050;-95
2021/04/27 13:39:18;;;;;;;;;;;13.70;45.00;;;;;;4803350;24;20037;-93
2021/04/27 13:44:47;;;;;;;3.13;2.08;;;13.60;45.20;;;;;;5113631;23;20098;-94
2021/04/27 13:50:45;;;;;;;3.22;2.92;;;13.50;45.30;;;;;;4995397;24;20049;-95
2021/04/27 13:56:32;;;;;;;6.68;3.33;;;13.50;45.60;;;;;;5646644;24;20483;-93
2021/04/27 14:17:14;;;;;;;3.28;2.97;;;13.70;44.30;;;;;;4429289;24;20101;-96
2021/04/27 14:25:52;;;;;;;6.53;3.00;;;13.50;45.20;;;;;;5374333;24;20024;-95
2021/04/27 14:28:21;;;;;;;5.85;3.85;;;13.40;45.60;;;;;;5109214;24;21429;-93
2021/04/27 14:31:25;;;;;;;8.02;3.26;;;13.40;45.70;;;;;;4825437;24;6246620;-93
2021/04/27 14:53:51;;;;;;;2.45;1.92;;;13.60;45.30;;;;;;4769461;30;20043;-90
2021/04/27 14:56:17;;;;;;;1.80;1.70;;;13.60;45.30;;;;;;4751428;30;20053;-90
2021/04/27 14:58:44;;;;;;;5.90;2.67;;;13.60;45.30;;;;;;4725851;30;20053;-91
2021/04/27 15:01:11;;;;;;;1.30;1.20;;;13.60;45.30;;;;;;4739706;30;20042;-91
2021/04/27 15:03:44;;;;;;;1.73;1.60;;;13.60;45.30;;;;;;4740422;30;20039;-93
2021/04/27 15:06:15;;;;;;;2.10;1.90;;;13.60;45.60;;;;;;4755397;30;20396;-91
2021/04/27 15:08:47;;;;;;;3.05;1.88;;;13.50;45.70;;;;;;4741440;30;20038;-92
2021/04/27 15:11:19;;;;;;;2.35;2.15;;;13.40;45.80;;;;;;4785936;30;20050;-93
2021/04/27 15:13:49;;;;;;;4.07;2.53;;;13.40;45.90;;;;;;4772134;30;20047;-91
2021/04/27 15:16:18;;;;;;;2.22;1.98;;;13.40;45.90;;;;;;4760441;30;20079;-90
2021/04/27 15:18:49;;;;;;;1.83;1.73;;;13.40;46.00;;;;;;4765310;30;20051;-93
2021/04/27 15:21:21;;;;;;;2.60;2.40;;;13.40;46.00;;;;;;4753601;30;20055;-88
2021/04/27 15:23:49;;;;;;;3.70;1.98;;;13.30;46.10;;;;;;4763895;30;20475;-93
2021/04/27 15:26:57;;;;;;;3.05;2.50;;;13.40;46.20;;;;;;4743451;30;20047;-90
2021/04/27 15:42:27;;;;;;;4.20;2.70;;;13.40;46.80;;;;;;5049171;23;20094;-91
2021/04/27 15:45:21;;;;;;;4.60;3.33;;;13.30;47.00;;;;;;4793826;29;20052;-93
2021/04/27 15:47:53;;;;;;;7.13;3.58;;;13.30;47.20;;;;;;4798323;29;20066;-91
2021/04/27 15:50:24;;;;;;;4.93;3.22;;;13.30;47.10;;;;;;4797412;29;20097;-93
2021/04/27 15:52:57;;;;;;;2.67;2.47;;;13.30;47.10;;;;;;4763821;29;20046;-91
2021/04/27 15:55:27;;;;;;;4.38;3.53;;;13.20;47.40;;;;;;4791207;29;20061;-92
2021/04/27 15:57:58;;;;;;;3.28;2.42;;;13.20;47.70;;;;;;4803789;29;20049;-92
2021/04/27 16:00:28;;;;;;;7.10;3.55;;;13.20;47.90;;;;;;4805958;29;20490;-92
2021/04/27 16:03:05;;;;;;;5.43;3.97;;;13.10;47.90;;;;;;4806725;29;20026;-91
2021/04/27 16:05:32;;;;;;;5.68;3.65;;;13.10;48.00;;;;;;4806338;29;20201;-90
2021/04/27 16:08:07;;;;;;;5.47;3.35;;;13.10;48.10;;;;;;4794202;29;20121;-92